Etusivu
METAR-TAF:

METAR-TAF

Lentoasemat :

Västeråsin lentoasema

Västerås, Ruotsi

Leveyspiiri: 59-35N, Pituuspiiri: 016-38E, korkeus merenpinnasta: 6 m

Tämänhetkinen sää

Tämä raportti tehtiin 39 minuuttia sitten, kello 03.50 UTC
Tuuli 9 kn lounaasta
Lämpötila 17°C
Kosteus 77%
Ilmanpaine 1007 hPa
Näkyvyys 10 km tai enemmän

METAR: ESOW 220350Z AUTO 23009KT 9999 NCD 17/13 Q1007

Aika: 06:29 (04:29 UTC)


TAF: puuttuu

Säähavainnot ja -ennusteet yli 4000 lentoasemalta (METAR- ja TAF-raportit).

Käytössä olevat sääasemat on merkitty karttaan keltaisilla ja punaisilla pisteillä.

Aseta hiiri pisteen päälle nähdäksesi sääaseman nimen.

Klikkaa sitten nähdäksesi säähavainnot ja -ennusteet.

Kartan vaihtaminen: klikkaa mustalla rastilla varustettuja vihreitä pisteitä, niin voit zoomata sisään; viivalla varustettua vihreää pistettä, niin voit zoomata ulos tai vihreitä nuolia, niin pääset viereisille kartoille.


METAR-TAF: